sensor_id;sensor_type;location;lat;lon;timestamp;P1;durP1;ratioP1;P2;durP2;ratioP2
6019;SDS011;3038;51.122;6.840;2022-08-01T00:01:51;5.40;;;5.00;;
6019;SDS011;3038;51.122;6.840;2022-08-01T00:04:16;4.87;;;4.47;;
6019;SDS011;3038;51.122;6.840;2022-08-01T00:06:42;4.50;;;4.10;;
6019;SDS011;3038;51.122;6.840;2022-08-01T00:09:07;6.30;;;4.70;;
6019;SDS011;3038;51.122;6.840;2022-08-01T00:11:32;5.07;;;4.57;;
6019;SDS011;3038;51.122;6.840;2022-08-01T00:13:58;5.40;;;5.00;;
6019;SDS011;3038;51.122;6.840;2022-08-01T00:16:23;4.57;;;4.10;;
6019;SDS011;3038;51.122;6.840;2022-08-01T00:18:49;4.87;;;4.17;;
6019;SDS011;3038;51.122;6.840;2022-08-01T00:21:15;4.50;;;4.10;;
6019;SDS011;3038;51.122;6.840;2022-08-01T00:23:41;5.93;;;4.43;;
6019;SDS011;3038;51.122;6.840;2022-08-01T00:26:06;4.33;;;3.93;;
6019;SDS011;3038;51.122;6.840;2022-08-01T00:28:32;4.53;;;4.23;;
6019;SDS011;3038;51.122;6.840;2022-08-01T00:30:57;4.40;;;3.70;;
6019;SDS011;3038;51.122;6.840;2022-08-01T00:33:23;5.17;;;4.17;;
6019;SDS011;3038;51.122;6.840;2022-08-01T00:35:48;4.10;;;3.80;;
6019;SDS011;3038;51.122;6.840;2022-08-01T00:38:13;4.17;;;3.77;;
6019;SDS011;3038;51.122;6.840;2022-08-01T00:40:39;4.40;;;4.10;;
6019;SDS011;3038;51.122;6.840;2022-08-01T00:43:04;4.67;;;4.10;;
6019;SDS011;3038;51.122;6.840;2022-08-01T00:45:29;6.30;;;3.90;;
6019;SDS011;3038;51.122;6.840;2022-08-01T00:47:55;4.40;;;4.10;;
6019;SDS011;3038;51.122;6.840;2022-08-01T00:50:20;4.10;;;3.80;;
6019;SDS011;3038;51.122;6.840;2022-08-01T00:52:46;5.07;;;4.67;;
6019;SDS011;3038;51.122;6.840;2022-08-01T00:55:12;4.73;;;4.43;;
6019;SDS011;3038;51.122;6.840;2022-08-01T00:57:37;4.93;;;4.53;;
6019;SDS011;3038;51.122;6.840;2022-08-01T01:00:05;5.90;;;4.47;;
6019;SDS011;3038;51.122;6.840;2022-08-01T01:02:31;4.80;;;4.40;;
6019;SDS011;3038;51.122;6.840;2022-08-01T01:04:57;5.13;;;4.70;;
6019;SDS011;3038;51.122;6.840;2022-08-01T01:07:34;4.80;;;4.30;;
6019;SDS011;3038;51.122;6.840;2022-08-01T01:16:00;5.30;;;4.80;;
6019;SDS011;3038;51.122;6.840;2022-08-01T01:29:30;5.23;;;4.90;;
6019;SDS011;3038;51.122;6.840;2022-08-01T01:32:07;4.40;;;4.10;;
6019;SDS011;3038;51.122;6.840;2022-08-01T01:34:38;4.63;;;4.13;;
6019;SDS011;3038;51.122;6.840;2022-08-01T01:37:15;4.97;;;4.57;;
6019;SDS011;3038;51.122;6.840;2022-08-01T01:39:43;5.77;;;5.27;;
6019;SDS011;3038;51.122;6.840;2022-08-01T01:42:11;4.83;;;4.33;;
6019;SDS011;3038;51.122;6.840;2022-08-01T01:44:37;4.87;;;4.37;;
6019;SDS011;3038;51.122;6.840;2022-08-01T01:47:04;4.93;;;4.53;;
6019;SDS011;3038;51.122;6.840;2022-08-01T01:49:30;5.80;;;5.30;;
6019;SDS011;3038;51.122;6.840;2022-08-01T01:51:57;6.30;;;4.00;;
6019;SDS011;3038;51.122;6.840;2022-08-01T01:54:25;5.30;;;4.90;;
6019;SDS011;3038;51.122;6.840;2022-08-01T01:56:54;5.63;;;4.90;;
6019;SDS011;3038;51.122;6.840;2022-08-01T01:59:24;5.10;;;4.70;;
6019;SDS011;3038;51.122;6.840;2022-08-01T02:01:54;4.80;;;4.50;;
6019;SDS011;3038;51.122;6.840;2022-08-01T02:04:22;4.57;;;4.23;;
6019;SDS011;3038;51.122;6.840;2022-08-01T02:06:49;5.77;;;4.93;;
6019;SDS011;3038;51.122;6.840;2022-08-01T02:09:17;4.73;;;4.23;;
6019;SDS011;3038;51.122;6.840;2022-08-01T02:11:45;7.00;;;4.50;;
6019;SDS011;3038;51.122;6.840;2022-08-01T02:14:12;4.97;;;4.17;;
6019;SDS011;3038;51.122;6.840;2022-08-01T02:16:39;4.87;;;4.20;;
6019;SDS011;3038;51.122;6.840;2022-08-01T02:19:06;4.60;;;4.27;;
6019;SDS011;3038;51.122;6.840;2022-08-01T02:21:35;5.67;;;5.17;;
6019;SDS011;3038;51.122;6.840;2022-08-01T02:24:54;4.13;;;3.83;;
6019;SDS011;3038;51.122;6.840;2022-08-01T02:27:15;5.30;;;4.60;;
6019;SDS011;3038;51.122;6.840;2022-08-01T02:29:53;5.03;;;4.53;;
6019;SDS011;3038;51.122;6.840;2022-08-01T02:32:30;4.60;;;4.13;;
6019;SDS011;3038;51.122;6.840;2022-08-01T02:35:00;4.40;;;4.00;;
6019;SDS011;3038;51.122;6.840;2022-08-01T02:37:29;5.10;;;4.67;;
6019;SDS011;3038;51.122;6.840;2022-08-01T02:39:58;4.47;;;3.83;;
6019;SDS011;3038;51.122;6.840;2022-08-01T02:42:26;4.67;;;4.27;;
6019;SDS011;3038;51.122;6.840;2022-08-01T02:44:55;6.53;;;5.17;;
6019;SDS011;3038;51.122;6.840;2022-08-01T02:47:22;4.80;;;4.40;;
6019;SDS011;3038;51.122;6.840;2022-08-01T02:49:48;4.90;;;4.43;;
6019;SDS011;3038;51.122;6.840;2022-08-01T02:52:17;5.57;;;4.90;;
6019;SDS011;3038;51.122;6.840;2022-08-01T02:54:45;4.80;;;4.40;;
6019;SDS011;3038;51.122;6.840;2022-08-01T02:57:13;4.93;;;4.53;;
6019;SDS011;3038;51.122;6.840;2022-08-01T02:59:41;5.33;;;4.60;;
6019;SDS011;3038;51.122;6.840;2022-08-01T03:02:07;5.23;;;4.83;;
6019;SDS011;3038;51.122;6.840;2022-08-01T03:04:35;5.03;;;4.63;;
6019;SDS011;3038;51.122;6.840;2022-08-01T03:07:04;6.70;;;4.77;;
6019;SDS011;3038;51.122;6.840;2022-08-01T03:09:34;5.60;;;4.97;;
6019;SDS011;3038;51.122;6.840;2022-08-01T03:12:02;5.40;;;4.90;;
6019;SDS011;3038;51.122;6.840;2022-08-01T03:14:31;6.17;;;5.60;;
6019;SDS011;3038;51.122;6.840;2022-08-01T03:17:00;5.37;;;4.83;;
6019;SDS011;3038;51.122;6.840;2022-08-01T03:19:28;5.03;;;4.53;;
6019;SDS011;3038;51.122;6.840;2022-08-01T03:21:56;5.77;;;5.17;;
6019;SDS011;3038;51.122;6.840;2022-08-01T03:24:23;5.70;;;5.20;;
6019;SDS011;3038;51.122;6.840;2022-08-01T03:26:50;5.43;;;4.93;;
6019;SDS011;3038;51.122;6.840;2022-08-01T03:29:22;6.90;;;5.10;;
6019;SDS011;3038;51.122;6.840;2022-08-01T03:31:50;7.17;;;6.07;;
6019;SDS011;3038;51.122;6.840;2022-08-01T03:34:17;6.00;;;5.47;;
6019;SDS011;3038;51.122;6.840;2022-08-01T03:37:29;6.57;;;5.97;;
6019;SDS011;3038;51.122;6.840;2022-08-01T03:39:37;6.00;;;5.40;;
6019;SDS011;3038;51.122;6.840;2022-08-01T03:42:14;8.53;;;6.77;;
6019;SDS011;3038;51.122;6.840;2022-08-01T03:44:43;7.30;;;6.60;;
6019;SDS011;3038;51.122;6.840;2022-08-01T03:47:17;6.27;;;5.77;;
6019;SDS011;3038;51.122;6.840;2022-08-01T03:49:47;6.90;;;6.30;;
6019;SDS011;3038;51.122;6.840;2022-08-01T03:52:15;8.63;;;7.60;;
6019;SDS011;3038;51.122;6.840;2022-08-01T03:54:42;7.50;;;6.80;;
6019;SDS011;3038;51.122;6.840;2022-08-01T03:57:11;9.23;;;6.90;;
6019;SDS011;3038;51.122;6.840;2022-08-01T03:59:38;7.10;;;6.50;;
6019;SDS011;3038;51.122;6.840;2022-08-01T04:02:05;10.27;;;7.60;;
6019;SDS011;3038;51.122;6.840;2022-08-01T04:04:31;9.37;;;7.40;;
6019;SDS011;3038;51.122;6.840;2022-08-01T04:06:57;8.50;;;7.70;;
6019;SDS011;3038;51.122;6.840;2022-08-01T04:09:28;8.27;;;7.53;;
6019;SDS011;3038;51.122;6.840;2022-08-01T04:11:55;9.20;;;8.40;;
6019;SDS011;3038;51.122;6.840;2022-08-01T04:14:20;9.33;;;8.43;;
6019;SDS011;3038;51.122;6.840;2022-08-01T04:16:45;11.60;;;8.53;;
6019;SDS011;3038;51.122;6.840;2022-08-01T04:19:11;11.33;;;9.27;;
6019;SDS011;3038;51.122;6.840;2022-08-01T04:21:36;10.80;;;9.37;;
6019;SDS011;3038;51.122;6.840;2022-08-01T04:24:07;10.77;;;9.70;;
6019;SDS011;3038;51.122;6.840;2022-08-01T04:26:37;9.23;;;8.33;;
6019;SDS011;3038;51.122;6.840;2022-08-01T04:29:04;14.80;;;9.93;;
6019;SDS011;3038;51.122;6.840;2022-08-01T04:31:31;11.30;;;10.20;;
6019;SDS011;3038;51.122;6.840;2022-08-01T04:33:59;10.60;;;9.60;;
6019;SDS011;3038;51.122;6.840;2022-08-01T04:36:26;13.13;;;11.53;;
6019;SDS011;3038;51.122;6.840;2022-08-01T04:38:55;14.23;;;11.40;;
6019;SDS011;3038;51.122;6.840;2022-08-01T04:41:24;11.73;;;10.63;;
6019;SDS011;3038;51.122;6.840;2022-08-01T04:43:51;12.07;;;10.87;;
6019;SDS011;3038;51.122;6.840;2022-08-01T04:46:17;14.03;;;12.73;;
6019;SDS011;3038;51.122;6.840;2022-08-01T04:48:43;14.17;;;11.00;;
6019;SDS011;3038;51.122;6.840;2022-08-01T04:51:13;13.67;;;12.27;;
6019;SDS011;3038;51.122;6.840;2022-08-01T04:53:43;13.60;;;12.20;;
6019;SDS011;3038;51.122;6.840;2022-08-01T04:56:10;12.53;;;11.03;;
6019;SDS011;3038;51.122;6.840;2022-08-01T04:58:38;12.77;;;11.57;;
6019;SDS011;3038;51.122;6.840;2022-08-01T05:01:07;14.70;;;13.27;;
6019;SDS011;3038;51.122;6.840;2022-08-01T05:03:33;13.70;;;12.47;;
6019;SDS011;3038;51.122;6.840;2022-08-01T05:05:59;13.00;;;11.60;;
6019;SDS011;3038;51.122;6.840;2022-08-01T05:08:24;14.37;;;13.00;;
6019;SDS011;3038;51.122;6.840;2022-08-01T05:10:49;17.37;;;12.93;;
6019;SDS011;3038;51.122;6.840;2022-08-01T05:13:15;14.27;;;12.77;;
6019;SDS011;3038;51.122;6.840;2022-08-01T05:15:40;14.27;;;12.87;;
6019;SDS011;3038;51.122;6.840;2022-08-01T05:18:06;15.13;;;12.13;;
6019;SDS011;3038;51.122;6.840;2022-08-01T05:20:31;14.73;;;13.10;;
6019;SDS011;3038;51.122;6.840;2022-08-01T05:22:57;13.30;;;11.90;;
6019;SDS011;3038;51.122;6.840;2022-08-01T05:25:22;13.87;;;12.57;;
6019;SDS011;3038;51.122;6.840;2022-08-01T05:27:48;15.73;;;14.23;;
6019;SDS011;3038;51.122;6.840;2022-08-01T05:30:14;18.73;;;13.43;;
6019;SDS011;3038;51.122;6.840;2022-08-01T05:32:40;15.37;;;13.87;;
6019;SDS011;3038;51.122;6.840;2022-08-01T05:35:06;15.70;;;13.87;;
6019;SDS011;3038;51.122;6.840;2022-08-01T05:37:32;16.77;;;14.97;;
6019;SDS011;3038;51.122;6.840;2022-08-01T05:39:58;14.03;;;12.63;;
6019;SDS011;3038;51.122;6.840;2022-08-01T05:42:23;13.80;;;12.50;;
6019;SDS011;3038;51.122;6.840;2022-08-01T05:44:49;14.83;;;13.53;;
6019;SDS011;3038;51.122;6.840;2022-08-01T05:47:15;14.30;;;12.57;;
6019;SDS011;3038;51.122;6.840;2022-08-01T05:49:41;14.90;;;13.50;;
6019;SDS011;3038;51.122;6.840;2022-08-01T05:52:06;16.00;;;14.40;;
6019;SDS011;3038;51.122;6.840;2022-08-01T05:54:32;16.73;;;14.30;;
6019;SDS011;3038;51.122;6.840;2022-08-01T05:56:57;17.50;;;14.80;;
6019;SDS011;3038;51.122;6.840;2022-08-01T05:59:26;14.77;;;13.37;;
6019;SDS011;3038;51.122;6.840;2022-08-01T06:01:52;14.87;;;13.30;;
6019;SDS011;3038;51.122;6.840;2022-08-01T06:04:17;14.30;;;13.03;;
6019;SDS011;3038;51.122;6.840;2022-08-01T06:06:43;17.43;;;15.60;;
6019;SDS011;3038;51.122;6.840;2022-08-01T06:09:08;16.13;;;14.53;;
6019;SDS011;3038;51.122;6.840;2022-08-01T06:11:33;17.20;;;15.50;;
6019;SDS011;3038;51.122;6.840;2022-08-01T06:13:59;15.93;;;14.30;;
6019;SDS011;3038;51.122;6.840;2022-08-01T06:16:24;15.63;;;13.77;;
6019;SDS011;3038;51.122;6.840;2022-08-01T06:18:50;15.93;;;14.20;;
6019;SDS011;3038;51.122;6.840;2022-08-01T06:21:15;16.13;;;14.53;;
6019;SDS011;3038;51.122;6.840;2022-08-01T06:23:41;15.57;;;14.10;;
6019;SDS011;3038;51.122;6.840;2022-08-01T06:26:07;15.97;;;14.37;;
6019;SDS011;3038;51.122;6.840;2022-08-01T06:28:32;14.07;;;12.87;;
6019;SDS011;3038;51.122;6.840;2022-08-01T06:30:58;15.70;;;14.20;;
6019;SDS011;3038;51.122;6.840;2022-08-01T06:33:24;15.30;;;13.90;;
6019;SDS011;3038;51.122;6.840;2022-08-01T06:35:49;15.27;;;13.87;;
6019;SDS011;3038;51.122;6.840;2022-08-01T06:38:15;14.57;;;13.37;;
6019;SDS011;3038;51.122;6.840;2022-08-01T06:40:40;14.77;;;13.47;;
6019;SDS011;3038;51.122;6.840;2022-08-01T06:43:06;13.40;;;12.20;;
6019;SDS011;3038;51.122;6.840;2022-08-01T06:45:32;14.93;;;13.73;;
6019;SDS011;3038;51.122;6.840;2022-08-01T06:47:58;14.87;;;13.47;;
6019;SDS011;3038;51.122;6.840;2022-08-01T06:50:23;14.70;;;13.40;;
6019;SDS011;3038;51.122;6.840;2022-08-01T06:52:49;14.87;;;13.47;;
6019;SDS011;3038;51.122;6.840;2022-08-01T06:55:14;16.37;;;14.63;;
6019;SDS011;3038;51.122;6.840;2022-08-01T06:57:44;16.97;;;13.50;;
6019;SDS011;3038;51.122;6.840;2022-08-01T07:00:14;14.07;;;12.57;;
6019;SDS011;3038;51.122;6.840;2022-08-01T07:02:41;14.70;;;13.30;;
6019;SDS011;3038;51.122;6.840;2022-08-01T07:05:06;13.97;;;12.77;;
6019;SDS011;3038;51.122;6.840;2022-08-01T07:07:32;14.43;;;11.70;;
6019;SDS011;3038;51.122;6.840;2022-08-01T07:09:57;11.83;;;10.80;;
6019;SDS011;3038;51.122;6.840;2022-08-01T07:12:23;12.87;;;11.57;;
6019;SDS011;3038;51.122;6.840;2022-08-01T07:14:48;12.90;;;11.73;;
6019;SDS011;3038;51.122;6.840;2022-08-01T07:17:13;12.63;;;11.43;;
6019;SDS011;3038;51.122;6.840;2022-08-01T07:19:39;12.77;;;11.67;;
6019;SDS011;3038;51.122;6.840;2022-08-01T07:22:04;12.33;;;11.23;;
6019;SDS011;3038;51.122;6.840;2022-08-01T07:24:30;14.33;;;13.03;;
6019;SDS011;3038;51.122;6.840;2022-08-01T07:26:56;14.73;;;13.40;;
6019;SDS011;3038;51.122;6.840;2022-08-01T07:29:25;12.07;;;10.97;;
6019;SDS011;3038;51.122;6.840;2022-08-01T07:31:55;11.77;;;10.70;;
6019;SDS011;3038;51.122;6.840;2022-08-01T07:34:22;13.87;;;12.57;;
6019;SDS011;3038;51.122;6.840;2022-08-01T07:36:49;13.90;;;12.70;;
6019;SDS011;3038;51.122;6.840;2022-08-01T07:39:14;13.07;;;11.90;;
6019;SDS011;3038;51.122;6.840;2022-08-01T07:41:40;12.20;;;11.03;;
6019;SDS011;3038;51.122;6.840;2022-08-01T07:44:05;13.37;;;11.97;;
6019;SDS011;3038;51.122;6.840;2022-08-01T07:46:31;12.33;;;11.23;;
6019;SDS011;3038;51.122;6.840;2022-08-01T07:48:56;10.70;;;9.70;;
6019;SDS011;3038;51.122;6.840;2022-08-01T07:51:22;10.27;;;9.37;;
6019;SDS011;3038;51.122;6.840;2022-08-01T07:53:47;11.67;;;10.47;;
6019;SDS011;3038;51.122;6.840;2022-08-01T07:56:13;11.87;;;10.80;;
6019;SDS011;3038;51.122;6.840;2022-08-01T07:58:38;12.20;;;11.10;;
6019;SDS011;3038;51.122;6.840;2022-08-01T08:01:04;10.17;;;9.27;;
6019;SDS011;3038;51.122;6.840;2022-08-01T08:03:29;10.53;;;9.43;;
6019;SDS011;3038;51.122;6.840;2022-08-01T08:05:55;9.90;;;9.00;;
6019;SDS011;3038;51.122;6.840;2022-08-01T08:08:20;9.97;;;9.07;;
6019;SDS011;3038;51.122;6.840;2022-08-01T08:10:46;9.53;;;8.63;;
6019;SDS011;3038;51.122;6.840;2022-08-01T08:13:12;10.07;;;9.17;;
6019;SDS011;3038;51.122;6.840;2022-08-01T08:15:38;9.27;;;8.47;;
6019;SDS011;3038;51.122;6.840;2022-08-01T08:18:03;8.63;;;7.83;;
6019;SDS011;3038;51.122;6.840;2022-08-01T08:20:29;8.93;;;8.23;;
6019;SDS011;3038;51.122;6.840;2022-08-01T08:22:55;8.50;;;7.77;;
6019;SDS011;3038;51.122;6.840;2022-08-01T08:25:22;7.87;;;7.27;;
6019;SDS011;3038;51.122;6.840;2022-08-01T08:27:48;7.60;;;6.90;;
6019;SDS011;3038;51.122;6.840;2022-08-01T08:30:14;9.10;;;8.30;;
6019;SDS011;3038;51.122;6.840;2022-08-01T08:32:39;9.10;;;8.40;;
6019;SDS011;3038;51.122;6.840;2022-08-01T08:35:05;8.80;;;8.10;;
6019;SDS011;3038;51.122;6.840;2022-08-01T08:37:32;7.40;;;6.80;;
6019;SDS011;3038;51.122;6.840;2022-08-01T08:39:58;8.67;;;7.97;;
6019;SDS011;3038;51.122;6.840;2022-08-01T08:42:23;8.07;;;7.37;;
6019;SDS011;3038;51.122;6.840;2022-08-01T08:44:49;7.00;;;6.33;;
6019;SDS011;3038;51.122;6.840;2022-08-01T08:47:15;8.73;;;7.83;;
6019;SDS011;3038;51.122;6.840;2022-08-01T08:49:42;8.90;;;8.20;;
6019;SDS011;3038;51.122;6.840;2022-08-01T08:52:08;8.63;;;7.93;;
6019;SDS011;3038;51.122;6.840;2022-08-01T08:54:35;9.07;;;8.27;;
6019;SDS011;3038;51.122;6.840;2022-08-01T08:57:03;8.47;;;7.77;;
6019;SDS011;3038;51.122;6.840;2022-08-01T08:59:29;10.50;;;9.60;;
6019;SDS011;3038;51.122;6.840;2022-08-01T09:01:55;9.20;;;8.50;;
6019;SDS011;3038;51.122;6.840;2022-08-01T09:04:21;10.27;;;9.37;;
6019;SDS011;3038;51.122;6.840;2022-08-01T09:06:47;9.27;;;8.57;;
6019;SDS011;3038;51.122;6.840;2022-08-01T09:09:13;9.17;;;8.37;;
6019;SDS011;3038;51.122;6.840;2022-08-01T09:11:38;8.97;;;8.27;;
6019;SDS011;3038;51.122;6.840;2022-08-01T09:16:40;8.67;;;8.07;;
6019;SDS011;3038;51.122;6.840;2022-08-01T09:19:09;8.90;;;8.10;;
6019;SDS011;3038;51.122;6.840;2022-08-01T09:21:38;7.43;;;6.73;;
6019;SDS011;3038;51.122;6.840;2022-08-01T09:24:12;8.03;;;7.43;;
6019;SDS011;3038;51.122;6.840;2022-08-01T09:26:39;6.47;;;5.97;;
6019;SDS011;3038;51.122;6.840;2022-08-01T09:29:05;7.13;;;6.07;;
6019;SDS011;3038;51.122;6.840;2022-08-01T09:31:41;5.53;;;5.13;;
6019;SDS011;3038;51.122;6.840;2022-08-01T09:34:09;6.30;;;5.70;;
6019;SDS011;3038;51.122;6.840;2022-08-01T09:39:17;6.97;;;6.37;;
6019;SDS011;3038;51.122;6.840;2022-08-01T09:41:44;6.07;;;5.33;;
6019;SDS011;3038;51.122;6.840;2022-08-01T09:44:09;5.40;;;5.00;;
6019;SDS011;3038;51.122;6.840;2022-08-01T09:46:34;7.37;;;6.70;;
6019;SDS011;3038;51.122;6.840;2022-08-01T09:49:05;6.97;;;6.43;;
6019;SDS011;3038;51.122;6.840;2022-08-01T09:51:35;6.47;;;5.97;;
6019;SDS011;3038;51.122;6.840;2022-08-01T09:54:02;6.30;;;5.80;;
6019;SDS011;3038;51.122;6.840;2022-08-01T09:56:42;6.70;;;5.90;;
6019;SDS011;3038;51.122;6.840;2022-08-01T09:59:08;9.43;;;7.67;;
6019;SDS011;3038;51.122;6.840;2022-08-01T10:01:49;6.20;;;5.80;;
6019;SDS011;3038;51.122;6.840;2022-08-01T10:04:15;5.50;;;5.03;;
6019;SDS011;3038;51.122;6.840;2022-08-01T10:06:46;6.00;;;5.60;;
6019;SDS011;3038;51.122;6.840;2022-08-01T10:09:28;6.50;;;6.10;;
6019;SDS011;3038;51.122;6.840;2022-08-01T10:11:55;6.57;;;6.07;;
6019;SDS011;3038;51.122;6.840;2022-08-01T10:14:22;6.50;;;6.00;;
6019;SDS011;3038;51.122;6.840;2022-08-01T10:16:50;6.60;;;5.80;;
6019;SDS011;3038;51.122;6.840;2022-08-01T10:19:16;5.10;;;4.70;;
6019;SDS011;3038;51.122;6.840;2022-08-01T10:21:43;5.83;;;5.33;;
6019;SDS011;3038;51.122;6.840;2022-08-01T10:24:14;5.23;;;4.83;;
6019;SDS011;3038;51.122;6.840;2022-08-01T10:26:40;6.57;;;6.07;;
6019;SDS011;3038;51.122;6.840;2022-08-01T10:29:08;5.60;;;5.10;;
6019;SDS011;3038;51.122;6.840;2022-08-01T10:31:34;5.97;;;5.47;;
6019;SDS011;3038;51.122;6.840;2022-08-01T10:34:01;5.20;;;4.80;;
6019;SDS011;3038;51.122;6.840;2022-08-01T10:36:27;5.87;;;5.47;;
6019;SDS011;3038;51.122;6.840;2022-08-01T10:38:54;5.33;;;4.93;;
6019;SDS011;3038;51.122;6.840;2022-08-01T10:41:20;4.90;;;4.60;;
6019;SDS011;3038;51.122;6.840;2022-08-01T10:43:46;5.13;;;4.73;;
6019;SDS011;3038;51.122;6.840;2022-08-01T10:46:12;5.03;;;4.73;;
6019;SDS011;3038;51.122;6.840;2022-08-01T10:48:50;5.17;;;4.77;;
6019;SDS011;3038;51.122;6.840;2022-08-01T10:51:26;5.20;;;4.70;;
6019;SDS011;3038;51.122;6.840;2022-08-01T10:53:53;4.80;;;4.40;;
6019;SDS011;3038;51.122;6.840;2022-08-01T10:56:19;4.13;;;3.73;;
6019;SDS011;3038;51.122;6.840;2022-08-01T10:58:48;5.07;;;4.67;;
6019;SDS011;3038;51.122;6.840;2022-08-01T11:03:43;6.00;;;5.50;;
6019;SDS011;3038;51.122;6.840;2022-08-01T11:08:58;4.77;;;4.40;;
6019;SDS011;3038;51.122;6.840;2022-08-01T11:11:25;4.83;;;4.40;;
6019;SDS011;3038;51.122;6.840;2022-08-01T11:16:29;4.50;;;4.07;;
6019;SDS011;3038;51.122;6.840;2022-08-01T11:18:56;3.27;;;2.97;;
6019;SDS011;3038;51.122;6.840;2022-08-01T11:21:21;3.70;;;3.40;;
6019;SDS011;3038;51.122;6.840;2022-08-01T11:23:51;4.33;;;4.03;;
6019;SDS011;3038;51.122;6.840;2022-08-01T11:26:18;3.80;;;3.50;;
6019;SDS011;3038;51.122;6.840;2022-08-01T11:28:45;2.90;;;2.70;;
6019;SDS011;3038;51.122;6.840;2022-08-01T11:31:31;2.50;;;2.30;;
6019;SDS011;3038;51.122;6.840;2022-08-01T11:33:57;2.80;;;2.60;;
6019;SDS011;3038;51.122;6.840;2022-08-01T11:36:24;3.03;;;2.83;;
6019;SDS011;3038;51.122;6.840;2022-08-01T11:41:25;3.23;;;2.90;;
6019;SDS011;3038;51.122;6.840;2022-08-01T11:43:54;3.90;;;3.60;;
6019;SDS011;3038;51.122;6.840;2022-08-01T11:52:04;3.53;;;2.90;;
6019;SDS011;3038;51.122;6.840;2022-08-01T11:54:36;3.30;;;3.07;;
6019;SDS011;3038;51.122;6.840;2022-08-01T11:57:03;3.10;;;2.80;;
6019;SDS011;3038;51.122;6.840;2022-08-01T11:59:49;2.90;;;2.70;;
6019;SDS011;3038;51.122;6.840;2022-08-01T12:04:58;3.30;;;3.10;;
6019;SDS011;3038;51.122;6.840;2022-08-01T12:07:24;3.40;;;3.10;;
6019;SDS011;3038;51.122;6.840;2022-08-01T12:12:25;3.00;;;2.50;;
6019;SDS011;3038;51.122;6.840;2022-08-01T12:14:53;2.87;;;2.40;;
6019;SDS011;3038;51.122;6.840;2022-08-01T12:17:26;2.90;;;2.60;;
6019;SDS011;3038;51.122;6.840;2022-08-01T12:20:15;3.20;;;2.47;;
6019;SDS011;3038;51.122;6.840;2022-08-01T12:22:44;2.00;;;1.90;;
6019;SDS011;3038;51.122;6.840;2022-08-01T12:25:11;2.23;;;2.03;;
6019;SDS011;3038;51.122;6.840;2022-08-01T12:27:39;2.20;;;2.10;;
6019;SDS011;3038;51.122;6.840;2022-08-01T12:30:06;2.67;;;2.30;;
6019;SDS011;3038;51.122;6.840;2022-08-01T12:32:34;1.87;;;1.77;;
6019;SDS011;3038;51.122;6.840;2022-08-01T12:35:06;2.13;;;1.80;;
6019;SDS011;3038;51.122;6.840;2022-08-01T12:37:52;2.43;;;2.23;;
6019;SDS011;3038;51.122;6.840;2022-08-01T12:40:20;4.03;;;1.83;;
6019;SDS011;3038;51.122;6.840;2022-08-01T12:42:51;1.77;;;1.67;;
6019;SDS011;3038;51.122;6.840;2022-08-01T12:45:24;2.73;;;2.00;;
6019;SDS011;3038;51.122;6.840;2022-08-01T12:47:52;2.07;;;1.90;;
6019;SDS011;3038;51.122;6.840;2022-08-01T12:50:19;1.90;;;1.80;;
6019;SDS011;3038;51.122;6.840;2022-08-01T12:52:46;2.37;;;2.17;;
6019;SDS011;3038;51.122;6.840;2022-08-01T12:55:19;2.40;;;2.03;;
6019;SDS011;3038;51.122;6.840;2022-08-01T12:57:50;2.37;;;2.20;;
6019;SDS011;3038;51.122;6.840;2022-08-01T13:00:28;3.07;;;2.50;;
6019;SDS011;3038;51.122;6.840;2022-08-01T13:03:02;2.70;;;1.87;;
6019;SDS011;3038;51.122;6.840;2022-08-01T13:08:30;1.97;;;1.87;;
6019;SDS011;3038;51.122;6.840;2022-08-01T13:11:04;1.80;;;1.70;;
6019;SDS011;3038;51.122;6.840;2022-08-01T13:13:37;2.27;;;2.00;;
6019;SDS011;3038;51.122;6.840;2022-08-01T13:16:04;4.70;;;2.00;;
6019;SDS011;3038;51.122;6.840;2022-08-01T13:18:31;2.20;;;2.10;;
6019;SDS011;3038;51.122;6.840;2022-08-01T13:21:11;2.03;;;1.93;;
6019;SDS011;3038;51.122;6.840;2022-08-01T13:23:39;2.40;;;2.20;;
6019;SDS011;3038;51.122;6.840;2022-08-01T13:26:05;2.87;;;1.97;;
6019;SDS011;3038;51.122;6.840;2022-08-01T13:28:31;1.93;;;1.83;;
6019;SDS011;3038;51.122;6.840;2022-08-01T13:31:01;2.00;;;1.80;;
6019;SDS011;3038;51.122;6.840;2022-08-01T13:33:41;2.23;;;1.80;;
6019;SDS011;3038;51.122;6.840;2022-08-01T13:36:09;1.80;;;1.70;;
6019;SDS011;3038;51.122;6.840;2022-08-01T13:38:35;2.07;;;1.87;;
6019;SDS011;3038;51.122;6.840;2022-08-01T13:41:19;2.27;;;2.07;;
6019;SDS011;3038;51.122;6.840;2022-08-01T13:43:44;2.67;;;2.47;;
6019;SDS011;3038;51.122;6.840;2022-08-01T13:46:10;2.53;;;2.33;;
6019;SDS011;3038;51.122;6.840;2022-08-01T13:48:36;3.07;;;2.87;;
6019;SDS011;3038;51.122;6.840;2022-08-01T13:51:01;2.20;;;2.00;;
6019;SDS011;3038;51.122;6.840;2022-08-01T13:53:27;3.10;;;2.50;;
6019;SDS011;3038;51.122;6.840;2022-08-01T13:55:53;2.57;;;2.30;;
6019;SDS011;3038;51.122;6.840;2022-08-01T13:58:19;2.50;;;2.10;;
6019;SDS011;3038;51.122;6.840;2022-08-01T14:00:44;2.80;;;2.10;;
6019;SDS011;3038;51.122;6.840;2022-08-01T14:03:11;2.53;;;2.33;;
6019;SDS011;3038;51.122;6.840;2022-08-01T14:05:36;2.60;;;2.40;;
6019;SDS011;3038;51.122;6.840;2022-08-01T14:08:02;2.90;;;2.10;;
6019;SDS011;3038;51.122;6.840;2022-08-01T14:10:27;2.17;;;1.97;;
6019;SDS011;3038;51.122;6.840;2022-08-01T14:12:54;2.70;;;1.93;;
6019;SDS011;3038;51.122;6.840;2022-08-01T14:15:21;2.40;;;2.20;;
6019;SDS011;3038;51.122;6.840;2022-08-01T14:17:46;3.53;;;2.30;;
6019;SDS011;3038;51.122;6.840;2022-08-01T14:20:12;3.63;;;2.50;;
6019;SDS011;3038;51.122;6.840;2022-08-01T14:22:37;2.67;;;2.47;;
6019;SDS011;3038;51.122;6.840;2022-08-01T14:25:04;2.50;;;2.30;;
6019;SDS011;3038;51.122;6.840;2022-08-01T14:27:30;2.30;;;2.20;;
6019;SDS011;3038;51.122;6.840;2022-08-01T14:29:55;2.33;;;2.13;;
6019;SDS011;3038;51.122;6.840;2022-08-01T14:32:22;2.60;;;2.40;;
6019;SDS011;3038;51.122;6.840;2022-08-01T14:34:47;2.40;;;2.30;;
6019;SDS011;3038;51.122;6.840;2022-08-01T14:37:12;2.67;;;2.47;;
6019;SDS011;3038;51.122;6.840;2022-08-01T14:39:38;2.90;;;2.70;;
6019;SDS011;3038;51.122;6.840;2022-08-01T14:42:03;3.20;;;2.90;;
6019;SDS011;3038;51.122;6.840;2022-08-01T14:44:29;2.53;;;2.33;;
6019;SDS011;3038;51.122;6.840;2022-08-01T14:46:54;3.10;;;2.90;;
6019;SDS011;3038;51.122;6.840;2022-08-01T14:49:20;2.70;;;2.50;;
6019;SDS011;3038;51.122;6.840;2022-08-01T14:51:45;2.37;;;2.17;;
6019;SDS011;3038;51.122;6.840;2022-08-01T14:54:10;2.87;;;2.60;;
6019;SDS011;3038;51.122;6.840;2022-08-01T14:56:36;3.60;;;2.80;;
6019;SDS011;3038;51.122;6.840;2022-08-01T14:59:01;2.70;;;2.30;;
6019;SDS011;3038;51.122;6.840;2022-08-01T15:01:27;2.40;;;2.20;;
6019;SDS011;3038;51.122;6.840;2022-08-01T15:03:52;2.40;;;2.20;;
6019;SDS011;3038;51.122;6.840;2022-08-01T15:06:17;3.13;;;2.93;;
6019;SDS011;3038;51.122;6.840;2022-08-01T15:08:43;2.80;;;2.70;;
6019;SDS011;3038;51.122;6.840;2022-08-01T15:11:09;4.73;;;3.83;;
6019;SDS011;3038;51.122;6.840;2022-08-01T15:13:34;3.37;;;3.17;;
6019;SDS011;3038;51.122;6.840;2022-08-01T15:16:00;3.73;;;3.43;;
6019;SDS011;3038;51.122;6.840;2022-08-01T15:18:26;3.50;;;3.30;;
6019;SDS011;3038;51.122;6.840;2022-08-01T15:20:52;4.67;;;3.70;;
6019;SDS011;3038;51.122;6.840;2022-08-01T15:23:17;3.83;;;3.53;;
6019;SDS011;3038;51.122;6.840;2022-08-01T15:25:43;4.93;;;3.83;;
6019;SDS011;3038;51.122;6.840;2022-08-01T15:28:09;4.70;;;4.33;;
6019;SDS011;3038;51.122;6.840;2022-08-01T15:30:35;4.77;;;3.83;;
6019;SDS011;3038;51.122;6.840;2022-08-01T15:33:00;4.30;;;3.53;;
6019;SDS011;3038;51.122;6.840;2022-08-01T15:35:25;3.33;;;3.13;;
6019;SDS011;3038;51.122;6.840;2022-08-01T15:37:51;3.73;;;3.43;;
6019;SDS011;3038;51.122;6.840;2022-08-01T15:40:16;4.00;;;3.70;;
6019;SDS011;3038;51.122;6.840;2022-08-01T15:42:41;4.43;;;4.03;;
6019;SDS011;3038;51.122;6.840;2022-08-01T15:45:07;3.70;;;3.40;;
6019;SDS011;3038;51.122;6.840;2022-08-01T15:47:34;4.97;;;4.67;;
6019;SDS011;3038;51.122;6.840;2022-08-01T15:49:59;4.53;;;4.13;;
6019;SDS011;3038;51.122;6.840;2022-08-01T15:52:26;4.90;;;4.57;;
6019;SDS011;3038;51.122;6.840;2022-08-01T15:54:52;5.20;;;4.70;;
6019;SDS011;3038;51.122;6.840;2022-08-01T15:57:17;4.90;;;4.60;;